createdAt,value
2018-08-04T00:02:54.974Z,50.18
2018-08-04T00:07:58.591Z,50.85
2018-08-04T00:13:02.158Z,51.94
2018-08-04T00:18:06.418Z,51.59
2018-08-04T00:23:10.059Z,50.69
2018-08-04T00:28:13.806Z,50.17
2018-08-04T00:33:29.856Z,51.40
2018-08-04T00:38:33.452Z,51.80
2018-08-04T00:43:37.074Z,54.02
2018-08-04T00:48:40.695Z,53.07
2018-08-04T00:53:44.307Z,54.85
2018-08-04T00:58:48.071Z,53.99
2018-08-04T01:03:51.714Z,53.15
2018-08-04T01:08:55.272Z,49.78
2018-08-04T01:13:58.857Z,49.04
2018-08-04T01:19:02.402Z,48.96
2018-08-04T01:24:06.023Z,48.71
2018-08-04T01:29:09.820Z,49.13
2018-08-04T01:34:13.457Z,49.45
2018-08-04T01:39:28.217Z,49.48
2018-08-04T01:44:31.843Z,50.37
2018-08-04T01:49:35.656Z,50.04
2018-08-04T01:54:39.259Z,49.98
2018-08-04T01:59:42.810Z,49.91
2018-08-04T02:04:46.372Z,50.44
2018-08-04T02:09:49.946Z,51.39
2018-08-04T02:14:53.546Z,50.97
2018-08-04T02:19:57.155Z,50.61
2018-08-04T02:25:00.848Z,50.86
2018-08-04T02:30:06.089Z,50.96
2018-08-04T02:35:09.711Z,52.11
2018-08-04T02:40:13.421Z,52.35
2018-08-04T02:45:17.022Z,52.69
2018-08-04T02:50:20.549Z,53.88
2018-08-04T02:55:24.146Z,53.37
2018-08-04T03:00:28.059Z,58.10
2018-08-04T03:05:31.833Z,54.58
2018-08-04T03:10:35.360Z,55.13
2018-08-04T03:15:39.082Z,54.88
2018-08-04T03:20:42.821Z,54.98
2018-08-04T03:25:47.260Z,53.98
2018-08-04T03:30:51.072Z,55.35
2018-08-04T03:35:55.014Z,55.96
2018-08-04T03:40:58.590Z,56.30
2018-08-04T03:46:05.643Z,57.42
2018-08-04T03:51:09.186Z,58.80
2018-08-04T03:56:12.828Z,58.50
2018-08-04T04:01:16.483Z,59.00
2018-08-04T04:06:20.206Z,58.40
2018-08-04T04:11:24.741Z,58.42
2018-08-04T04:16:28.349Z,58.08
2018-08-04T04:21:32.488Z,58.16
2018-08-04T04:26:36.135Z,58.15
2018-08-04T04:31:39.695Z,57.07
2018-08-04T04:36:43.362Z,56.83
2018-08-04T04:41:47.949Z,57.54
2018-08-04T04:46:52.120Z,57.78
2018-08-04T04:51:55.762Z,54.23
2018-08-04T04:56:59.375Z,53.08
2018-08-04T05:02:02.998Z,51.83
2018-08-04T05:07:06.969Z,52.85
2018-08-04T05:12:10.534Z,53.07
2018-08-04T05:17:14.988Z,53.70
2018-08-04T05:22:19.081Z,52.70
2018-08-04T05:27:22.617Z,52.53
2018-08-04T05:32:26.284Z,53.16
2018-08-04T05:37:29.971Z,53.16
2018-08-04T05:42:34.036Z,53.32
2018-08-04T05:47:37.596Z,53.47
2018-08-04T05:52:41.432Z,53.22
2018-08-04T05:57:45.144Z,53.61
2018-08-04T06:02:48.737Z,52.07
2018-08-04T06:07:52.496Z,52.53
2018-08-04T06:12:56.203Z,51.48
2018-08-04T06:17:59.737Z,51.90
2018-08-04T06:23:03.357Z,51.99
2018-08-04T06:28:07.234Z,50.77
2018-08-04T06:33:10.898Z,50.22
2018-08-04T06:38:15.953Z,49.48
2018-08-04T06:43:19.566Z,50.21
2018-08-04T06:48:23.110Z,49.75
2018-08-04T06:53:26.751Z,51.00
2018-08-04T06:58:30.350Z,51.49
2018-08-04T07:03:33.956Z,50.49
2018-08-04T07:08:37.799Z,50.54
2018-08-04T07:13:41.408Z,50.88
2018-08-04T07:18:45.030Z,50.93
2018-08-04T07:23:49.458Z,49.96
2018-08-04T07:28:56.184Z,49.56
2018-08-04T07:33:59.866Z,49.81
2018-08-04T07:39:04.308Z,49.46
2018-08-04T07:44:07.848Z,50.98
2018-08-04T07:49:12.735Z,49.91
2018-08-04T07:54:16.380Z,49.24
2018-08-04T07:59:21.319Z,49.33
2018-08-04T08:04:24.893Z,48.06
2018-08-04T08:09:28.413Z,47.24
2018-08-04T08:14:32.238Z,44.84
2018-08-04T08:19:36.808Z,43.81
2018-08-04T08:24:40.450Z,44.29
2018-08-04T08:29:44.902Z,44.69
2018-08-04T08:34:48.624Z,44.81
2018-08-04T08:39:52.324Z,43.50
2018-08-04T08:44:55.877Z,42.18
2018-08-04T08:49:59.459Z,42.61
2018-08-04T08:55:03.077Z,41.96
2018-08-04T09:00:13.398Z,40.33
2018-08-04T09:05:19.540Z,39.67
2018-08-04T09:10:23.100Z,39.01
2018-08-04T09:15:27.503Z,38.89
2018-08-04T09:20:31.061Z,39.68
2018-08-04T09:25:36.477Z,39.23
2018-08-04T09:30:40.020Z,38.46
2018-08-04T09:35:43.629Z,37.13
2018-08-04T09:40:47.297Z,37.54
2018-08-04T09:45:50.914Z,38.04
2018-08-04T09:50:54.439Z,37.96
2018-08-04T09:55:58.216Z,36.81
2018-08-04T10:01:06.973Z,38.11
2018-08-04T10:06:10.602Z,39.00
2018-08-04T10:11:14.250Z,35.96
2018-08-04T10:16:17.893Z,33.63
2018-08-04T10:21:22.261Z,33.47
2018-08-04T10:26:25.972Z,34.52
2018-08-04T10:31:29.492Z,35.58
2018-08-04T10:36:33.093Z,36.36
2018-08-04T10:41:36.882Z,35.64
2018-08-04T10:46:42.214Z,32.14
2018-08-04T10:51:45.938Z,34.26
2018-08-04T10:56:49.509Z,34.12
2018-08-04T11:01:53.245Z,34.27
2018-08-04T11:06:57.781Z,34.44
2018-08-04T11:12:01.342Z,33.02
2018-08-04T11:17:04.942Z,33.63
2018-08-04T11:22:08.672Z,33.45
2018-08-04T11:27:12.337Z,32.27
2018-08-04T11:32:15.835Z,32.68
2018-08-04T11:37:19.527Z,33.74
2018-08-04T11:42:23.095Z,31.54
2018-08-04T11:47:26.753Z,31.48
2018-08-04T11:52:30.293Z,31.38
2018-08-04T11:57:33.987Z,32.09
2018-08-04T12:02:37.542Z,32.85
2018-08-04T12:07:41.225Z,32.70
2018-08-04T12:12:44.745Z,33.42
2018-08-04T12:17:50.522Z,32.08
2018-08-04T12:22:54.177Z,32.31
2018-08-04T12:27:57.733Z,33.56
2018-08-04T12:33:01.388Z,32.38
2018-08-04T12:38:05.046Z,32.42
2018-08-04T12:43:08.625Z,33.53
2018-08-04T12:48:12.255Z,32.66
2018-08-04T12:53:15.769Z,33.20
2018-08-04T12:58:19.640Z,33.02
2018-08-04T13:03:23.330Z,33.60
2018-08-04T13:08:26.886Z,33.25
2018-08-04T13:13:30.349Z,32.80
2018-08-04T13:18:33.930Z,33.84
2018-08-04T13:23:37.418Z,32.57
2018-08-04T13:28:41.069Z,32.89
2018-08-04T13:33:44.994Z,32.62
2018-08-04T13:38:48.681Z,32.17
2018-08-04T13:43:52.265Z,31.57
2018-08-04T13:48:55.835Z,31.46
2018-08-04T13:53:59.406Z,31.67
2018-08-04T13:59:03.432Z,32.21
2018-08-04T14:04:07.347Z,32.58
2018-08-04T14:09:11.978Z,33.24
2018-08-04T14:14:15.557Z,32.87
2018-08-04T14:19:19.539Z,33.28
2018-08-04T14:24:33.375Z,33.79
2018-08-04T14:29:37.463Z,33.00
2018-08-04T14:34:41.108Z,33.27
2018-08-04T14:39:44.722Z,33.54
2018-08-04T14:44:48.195Z,33.88
2018-08-04T14:49:51.771Z,33.40
2018-08-04T14:54:55.307Z,32.36
2018-08-04T14:59:58.830Z,31.58
2018-08-04T15:05:02.940Z,31.62
2018-08-04T15:10:06.930Z,32.26
2018-08-04T15:15:11.099Z,30.79
2018-08-04T15:20:15.257Z,32.22
2018-08-04T15:25:18.873Z,32.24
2018-08-04T15:30:29.015Z,31.13
2018-08-04T15:35:32.587Z,31.55
2018-08-04T15:40:36.170Z,31.93
2018-08-04T15:45:39.627Z,31.98
2018-08-04T15:50:43.260Z,32.82
2018-08-04T15:55:46.860Z,32.45
2018-08-04T16:00:51.462Z,31.74
2018-08-04T16:05:54.970Z,32.86
2018-08-04T16:10:59.128Z,32.54
2018-08-04T16:16:02.602Z,32.26
2018-08-04T16:21:07.007Z,33.07
2018-08-04T16:26:10.532Z,32.71
2018-08-04T16:31:14.180Z,33.58
2018-08-04T16:36:18.238Z,33.71
2018-08-04T16:41:21.825Z,34.09
2018-08-04T16:46:25.632Z,34.72
2018-08-04T16:51:29.216Z,33.46
2018-08-04T16:56:32.787Z,34.46
2018-08-04T17:01:37.473Z,35.03
2018-08-04T17:06:41.044Z,34.81
2018-08-04T17:11:44.602Z,34.31
2018-08-04T17:16:48.121Z,34.71
2018-08-04T17:21:51.686Z,35.84
2018-08-04T17:26:55.222Z,36.22
2018-08-04T17:31:58.906Z,35.50
2018-08-04T17:37:02.414Z,35.52
2018-08-04T17:42:06.013Z,37.48
2018-08-04T17:47:09.637Z,37.50
2018-08-04T17:52:14.054Z,37.10
2018-08-04T17:57:17.601Z,38.89
2018-08-04T18:02:21.167Z,39.03
2018-08-04T18:07:24.797Z,39.63
2018-08-04T18:12:28.482Z,41.10
2018-08-04T18:17:32.008Z,41.09
2018-08-04T18:22:35.601Z,42.75
2018-08-04T18:27:39.238Z,43.59
2018-08-04T18:32:43.776Z,43.67
2018-08-04T18:37:47.474Z,44.51
2018-08-04T18:42:51.007Z,46.12
2018-08-04T18:47:54.604Z,46.52
2018-08-04T18:52:58.254Z,46.90
2018-08-04T18:58:01.749Z,46.98
2018-08-04T19:03:05.579Z,47.85
2018-08-04T19:08:13.229Z,49.02
2018-08-04T19:13:16.784Z,48.74
2018-08-04T19:18:20.600Z,49.19
2018-08-04T19:23:24.164Z,49.92
2018-08-04T19:28:27.752Z,48.71
2018-08-04T19:33:31.771Z,50.36
2018-08-04T19:38:35.326Z,50.34
2018-08-04T19:43:38.861Z,49.48
2018-08-04T19:48:43.001Z,49.31
2018-08-04T19:53:46.586Z,50.64
2018-08-04T19:58:50.171Z,50.29
2018-08-04T20:03:53.735Z,50.38
2018-08-04T20:08:57.416Z,50.24
2018-08-04T20:14:01.270Z,50.12
2018-08-04T20:19:04.808Z,50.70
2018-08-04T20:24:08.397Z,50.53
2018-08-04T20:29:12.067Z,50.83
2018-08-04T20:34:15.617Z,51.26
2018-08-04T20:39:19.138Z,51.83
2018-08-04T20:44:22.734Z,50.51
2018-08-04T20:49:26.530Z,51.32
2018-08-04T20:54:30.627Z,50.47
2018-08-04T20:59:34.294Z,50.32
2018-08-04T21:04:37.881Z,50.75
2018-08-04T21:09:41.490Z,50.19
2018-08-04T21:14:45.138Z,51.25
2018-08-04T21:19:48.639Z,50.96
2018-08-04T21:24:52.314Z,50.85
2018-08-04T21:29:56.121Z,52.54
2018-08-04T21:34:59.660Z,52.49
2018-08-04T21:40:03.287Z,52.91
2018-08-04T21:45:07.755Z,52.29
2018-08-04T21:50:11.419Z,53.14
2018-08-04T21:55:15.763Z,52.83
2018-08-04T22:00:28.673Z,53.24
2018-08-04T22:05:32.267Z,54.14
2018-08-04T22:10:35.787Z,53.74
2018-08-04T22:15:40.587Z,52.31
2018-08-04T22:20:44.323Z,53.44
2018-08-04T22:25:48.041Z,52.76
2018-08-04T22:30:51.687Z,52.71
2018-08-04T22:35:55.405Z,52.53
2018-08-04T22:40:59.764Z,51.60
2018-08-04T22:46:05.231Z,53.23
2018-08-04T22:51:08.891Z,53.03
2018-08-04T22:56:13.731Z,53.00
2018-08-04T23:01:18.108Z,54.32
2018-08-04T23:06:21.836Z,54.17
2018-08-04T23:11:25.748Z,54.88
2018-08-04T23:16:29.428Z,54.28
2018-08-04T23:21:33.019Z,54.18
2018-08-04T23:26:36.547Z,54.15
2018-08-04T23:31:40.367Z,54.03
2018-08-04T23:36:43.965Z,54.71
2018-08-04T23:41:47.567Z,54.48
2018-08-04T23:46:51.141Z,54.12
2018-08-04T23:51:54.826Z,54.54
2018-08-04T23:56:58.383Z,57.27
